createdAt,value
2023-05-09T00:09:44.351Z,96360.41
2023-05-09T00:24:45.911Z,96340.72
2023-05-09T00:39:47.488Z,96334.28
2023-05-09T00:54:49.038Z,96315.19
2023-05-09T01:09:50.852Z,96295.56
2023-05-09T01:24:52.452Z,96281.47
2023-05-09T01:39:54.117Z,96277.13
2023-05-09T01:54:55.741Z,96279.41
2023-05-09T02:09:57.442Z,96278.72
2023-05-09T02:25:00.704Z,96288.75
2023-05-09T02:40:02.409Z,96275.09
2023-05-09T02:55:04.521Z,96281.44
2023-05-09T03:10:11.591Z,96260.13
2023-05-09T03:25:13.692Z,96246.38
2023-05-09T03:40:15.761Z,96238.88
2023-05-09T03:55:24.737Z,96227.56
2023-05-09T04:10:26.499Z,96218.16
2023-05-09T04:25:29.743Z,96224.41
2023-05-09T04:40:31.974Z,96226.75
2023-05-09T04:55:35.879Z,96235.06
2023-05-09T05:10:37.793Z,96237.06
2023-05-09T05:25:43.627Z,96230.00
2023-05-09T05:40:45.589Z,96223.72
2023-05-09T05:55:47.418Z,96223.34
2023-05-09T06:10:49.324Z,96203.66
2023-05-09T06:25:51.064Z,96189.72
2023-05-09T06:40:52.804Z,96165.72
2023-05-09T06:55:54.446Z,96158.97
2023-05-09T07:10:56.058Z,96149.53
2023-05-09T07:25:58.971Z,96137.97
2023-05-09T07:41:00.588Z,96125.31
2023-05-09T07:56:02.250Z,96107.16
2023-05-09T08:11:04.071Z,96078.66
2023-05-09T08:26:05.769Z,96057.28
2023-05-09T08:41:07.396Z,96041.72
2023-05-09T08:56:09.016Z,96020.50
2023-05-09T09:11:10.686Z,96001.66
2023-05-09T09:26:12.338Z,95966.78
2023-05-09T09:41:13.957Z,95951.41
2023-05-09T09:56:15.585Z,95937.38
2023-05-09T10:11:17.226Z,95918.59
2023-05-09T10:26:19.052Z,95906.94
2023-05-09T10:41:22.201Z,95893.03
2023-05-09T10:56:23.926Z,95858.41
2023-05-09T11:11:25.933Z,95830.66
2023-05-09T11:26:27.670Z,95810.03
2023-05-09T11:41:29.286Z,95783.50
2023-05-09T11:56:30.919Z,95750.16
2023-05-09T12:11:35.187Z,95733.72
2023-05-09T12:26:36.908Z,95712.31
2023-05-09T12:41:46.835Z,95684.53
2023-05-09T12:56:58.563Z,95667.09
2023-05-09T13:12:00.526Z,95656.56
2023-05-09T13:27:02.231Z,95619.00
2023-05-09T13:42:04.245Z,95594.38
2023-05-09T13:57:05.887Z,95575.38
2023-05-09T14:12:07.498Z,95553.69
2023-05-09T14:27:09.413Z,95531.13
2023-05-09T14:42:11.809Z,95508.78
2023-05-09T14:57:13.512Z,95484.38
2023-05-09T15:12:15.272Z,95464.06
2023-05-09T15:27:16.874Z,95445.97
2023-05-09T15:42:19.285Z,95429.72
2023-05-09T15:57:20.936Z,95437.69
2023-05-09T16:12:22.695Z,95443.78
2023-05-09T16:27:24.427Z,95429.47
2023-05-09T16:42:26.104Z,95395.53
2023-05-09T16:57:27.742Z,95380.88
2023-05-09T17:12:29.555Z,95366.78
2023-05-09T17:27:31.171Z,95347.69
2023-05-09T17:42:32.979Z,95345.00
2023-05-09T17:57:34.647Z,95382.06
2023-05-09T18:12:37.395Z,95410.94
2023-05-09T18:27:39.536Z,95418.56
2023-05-09T18:42:41.514Z,95440.88
2023-05-09T18:57:43.169Z,95462.97
2023-05-09T19:12:44.986Z,95460.81
2023-05-09T19:27:46.840Z,95453.75
2023-05-09T19:42:51.706Z,95461.63
2023-05-09T19:57:53.420Z,95469.50
2023-05-09T20:12:56.705Z,95457.63
2023-05-09T20:27:58.503Z,95467.50
2023-05-09T20:43:00.239Z,95457.22
2023-05-09T20:58:01.860Z,95449.75
2023-05-09T21:13:04.866Z,95439.44
2023-05-09T21:28:06.522Z,95432.97
2023-05-09T21:43:08.184Z,95417.22
2023-05-09T21:58:09.897Z,95403.09
2023-05-09T22:13:11.591Z,95405.13
2023-05-09T22:28:13.226Z,95406.13
2023-05-09T22:43:14.876Z,95405.94
2023-05-09T22:58:16.495Z,95403.72
2023-05-09T23:13:18.394Z,95396.84
2023-05-09T23:28:22.093Z,95402.53
2023-05-09T23:43:23.681Z,95409.56
2023-05-09T23:58:25.383Z,95406.78
